Spring Lake, Michigan
Current Conditions -  °F | °C
As of 8:55 AM on Saturday 25 Oct 2014 (Local Time) from KMKG Reporting Station
Haze Haze  
Wind Chill: 57°   Ceiling: 900
Heat Index: 57°   Visibility: 4mi
Dew Point: 53°   Wind: 8mph
Humidity: 87%   Direction: 280°W
Pressure: 29.85"   Gusts: NA
Location:  43.08°N, 86.2°W
Report Text: KMKG 251255Z 28007KT 4SM BR OVC009 14/12 A2985 RMK AO2 CIG 007V012 SLP110 T01390117
Loading
Personal Weather Stations






























Interactive Weather Map New forecast layout! Learn more

10-Day Weather Forecast

Advertisements
Track Severe Weather on mobile